createdAt,value
2022-11-16T00:00:29.919Z,97942.88
2022-11-16T00:01:36.408Z,97940.48
2022-11-16T00:02:38.378Z,97940.94
2022-11-16T00:03:41.236Z,97940.09
2022-11-16T00:04:43.161Z,97938.28
2022-11-16T00:05:44.994Z,97935.68
2022-11-16T00:06:49.832Z,97936.81
2022-11-16T00:07:51.711Z,97933.89
2022-11-16T00:09:18.922Z,97934.17
2022-11-16T00:10:21.021Z,97935.18
2022-11-16T00:11:23.016Z,97936.16
2022-11-16T00:12:24.860Z,97939.17
2022-11-16T00:13:26.854Z,97937.59
2022-11-16T00:14:34.113Z,97938.39
2022-11-16T00:15:35.985Z,97937.77
2022-11-16T00:16:38.986Z,97937.34
2022-11-16T00:17:40.866Z,97934.60
2022-11-16T00:18:44.038Z,97935.83
2022-11-16T00:19:47.980Z,97937.41
2022-11-16T00:20:51.002Z,97935.75
2022-11-16T00:21:53.648Z,97937.75
2022-11-16T00:22:55.535Z,97935.50
2022-11-16T00:23:57.804Z,97932.83
2022-11-16T00:24:59.641Z,97932.08
2022-11-16T00:26:06.330Z,97932.61
2022-11-16T00:27:08.290Z,97929.75
2022-11-16T00:28:11.347Z,97925.25
2022-11-16T00:29:21.837Z,97923.75
2022-11-16T00:30:23.723Z,97927.77
2022-11-16T00:31:26.237Z,97924.23
2022-11-16T00:32:28.258Z,97924.41
2022-11-16T00:33:30.513Z,97930.14
2022-11-16T00:34:32.665Z,97929.42
2022-11-16T00:35:39.763Z,97932.52
2022-11-16T00:36:41.777Z,97930.20
2022-11-16T00:37:43.675Z,97930.34
2022-11-16T00:38:45.752Z,97929.11
2022-11-16T00:39:48.433Z,97923.61
2022-11-16T00:40:50.561Z,97919.32
2022-11-16T00:41:52.490Z,97921.82
2022-11-16T00:42:54.467Z,97918.59
2022-11-16T00:43:56.837Z,97919.18
2022-11-16T00:44:58.813Z,97918.54
2022-11-16T00:46:00.920Z,97918.20
2022-11-16T00:47:04.027Z,97917.23
2022-11-16T00:48:06.688Z,97914.36
2022-11-16T00:49:09.057Z,97918.02
2022-11-16T00:50:11.119Z,97918.52
2022-11-16T00:51:13.355Z,97916.19
2022-11-16T00:52:16.862Z,97917.89
2022-11-16T00:53:20.723Z,97918.90
2022-11-16T00:54:22.773Z,97918.16
2022-11-16T00:55:25.323Z,97914.55
2022-11-16T00:56:27.483Z,97909.71
2022-11-16T00:57:29.348Z,97910.48
2022-11-16T00:58:31.800Z,97909.34
2022-11-16T00:59:38.191Z,97909.95
2022-11-16T01:00:41.277Z,97906.44
2022-11-16T01:01:43.228Z,97905.70
2022-11-16T01:02:45.265Z,97904.26
2022-11-16T01:03:48.131Z,97899.65
2022-11-16T01:04:50.299Z,97901.04
2022-11-16T01:05:52.199Z,97901.52
2022-11-16T01:06:54.174Z,97906.13
2022-11-16T01:07:59.369Z,97909.88
2022-11-16T01:09:01.665Z,97912.33
2022-11-16T01:10:14.274Z,97912.52
2022-11-16T01:11:36.626Z,97909.14
2022-11-16T01:12:38.724Z,97905.39
2022-11-16T01:13:40.578Z,97903.89
2022-11-16T01:14:45.354Z,97902.14
2022-11-16T01:15:48.448Z,97896.38
2022-11-16T01:16:50.838Z,97892.83
2022-11-16T01:17:54.810Z,97889.61
2022-11-16T01:18:56.788Z,97889.55
2022-11-16T01:19:58.869Z,97890.83
2022-11-16T01:21:00.797Z,97894.55
2022-11-16T01:22:02.808Z,97896.06
2022-11-16T01:23:04.933Z,97898.83
2022-11-16T01:24:06.918Z,97899.56
2022-11-16T01:25:10.361Z,97901.01
2022-11-16T01:26:13.053Z,97904.88
2022-11-16T01:27:16.389Z,97903.13
2022-11-16T01:28:19.808Z,97900.89
2022-11-16T01:29:25.870Z,97895.48
2022-11-16T01:30:31.462Z,97894.57
2022-11-16T01:31:43.389Z,97893.73
2022-11-16T01:32:45.338Z,97893.13
2022-11-16T01:33:47.760Z,97892.95
2022-11-16T01:34:55.208Z,97894.05
2022-11-16T01:36:03.481Z,97895.23
2022-11-16T01:37:05.455Z,97896.58
2022-11-16T01:38:10.243Z,97900.38
2022-11-16T01:39:14.126Z,97897.96
2022-11-16T01:40:21.184Z,97894.57
2022-11-16T01:41:26.056Z,97895.48
2022-11-16T01:42:33.800Z,97892.79
2022-11-16T01:43:58.727Z,97884.70
2022-11-16T01:45:16.827Z,97887.05
2022-11-16T01:46:19.673Z,97882.86
2022-11-16T01:47:22.259Z,97884.01
2022-11-16T01:48:30.366Z,97883.98
2022-11-16T01:49:36.337Z,97878.86
2022-11-16T01:50:39.668Z,97881.40
2022-11-16T01:51:47.790Z,97877.75
2022-11-16T01:53:00.852Z,97874.16
2022-11-16T01:54:12.560Z,97867.33
2022-11-16T01:55:27.752Z,97870.00
2022-11-16T01:56:44.550Z,97868.48
2022-11-16T01:57:59.140Z,97868.92
2022-11-16T01:59:03.313Z,97866.29
2022-11-16T02:00:09.462Z,97866.94
2022-11-16T02:01:19.947Z,97869.31
2022-11-16T02:02:24.721Z,97866.29
2022-11-16T02:03:26.999Z,97868.70
2022-11-16T02:04:29.903Z,97864.52
2022-11-16T02:06:03.974Z,97864.58
2022-11-16T02:07:26.943Z,97855.73
2022-11-16T02:09:10.865Z,97856.27
2022-11-16T02:10:55.017Z,97856.37
2022-11-16T02:12:22.875Z,97850.59
2022-11-16T02:13:46.511Z,97849.67
2022-11-16T02:15:16.171Z,97850.09
2022-11-16T02:16:53.189Z,97849.97
2022-11-16T02:18:08.977Z,97840.23
2022-11-16T02:19:37.222Z,97837.44
2022-11-16T02:21:00.434Z,97837.08
2022-11-16T02:22:25.644Z,97834.23
2022-11-16T02:23:43.513Z,97832.20
2022-11-16T02:25:08.280Z,97833.27
2022-11-16T02:26:39.251Z,97834.66
2022-11-16T02:28:14.315Z,97831.86
2022-11-16T02:29:34.453Z,97835.23
2022-11-16T02:30:38.211Z,97836.09
2022-11-16T02:31:51.784Z,97832.70
2022-11-16T02:33:04.854Z,97835.37
2022-11-16T02:34:13.055Z,97830.16
2022-11-16T02:35:20.732Z,97828.66
2022-11-16T02:36:25.634Z,97828.23
2022-11-16T02:37:34.806Z,97833.26
2022-11-16T02:38:45.288Z,97831.60
2022-11-16T02:39:53.292Z,97822.89
2022-11-16T02:41:05.790Z,97822.55
2022-11-16T02:42:15.341Z,97823.02
2022-11-16T02:43:29.966Z,97826.95
2022-11-16T02:44:40.147Z,97829.38
2022-11-16T02:45:50.567Z,97832.41
2022-11-16T02:47:00.230Z,97833.39
2022-11-16T02:48:11.225Z,97827.94
2022-11-16T02:49:19.530Z,97828.17
2022-11-16T02:50:23.908Z,97827.39
2022-11-16T02:51:29.599Z,97827.69
2022-11-16T02:52:32.594Z,97821.55
2022-11-16T02:53:42.940Z,97816.69
2022-11-16T02:54:45.190Z,97817.48
2022-11-16T02:55:47.872Z,97817.95
2022-11-16T02:57:02.186Z,97816.08
2022-11-16T02:58:09.371Z,97816.57
2022-11-16T02:59:16.465Z,97818.35
2022-11-16T03:00:36.008Z,97813.46
2022-11-16T03:01:51.309Z,97817.51
2022-11-16T03:03:01.792Z,97814.88
2022-11-16T03:04:33.006Z,97813.16
2022-11-16T03:05:53.105Z,97812.67
2022-11-16T03:06:58.470Z,97813.25
2022-11-16T03:08:17.675Z,97812.77
2022-11-16T03:09:27.601Z,97813.13
2022-11-16T03:10:49.264Z,97812.17
2022-11-16T03:11:59.841Z,97806.57
2022-11-16T03:13:08.391Z,97806.09
2022-11-16T03:14:16.889Z,97804.34
2022-11-16T03:15:18.901Z,97802.63
2022-11-16T03:16:28.614Z,97800.38
2022-11-16T03:17:38.790Z,97801.95
2022-11-16T03:18:46.549Z,97800.28
2022-11-16T03:20:07.762Z,97798.97
2022-11-16T03:21:25.603Z,97802.33
2022-11-16T03:22:54.801Z,97803.13
2022-11-16T03:23:57.660Z,97799.84
2022-11-16T03:24:59.824Z,97800.23
2022-11-16T03:26:09.344Z,97800.10
2022-11-16T03:27:35.251Z,97797.61
2022-11-16T03:28:52.307Z,97795.61
2022-11-16T03:30:10.872Z,97799.08
2022-11-16T03:31:32.918Z,97797.71
2022-11-16T03:32:51.323Z,97797.09
2022-11-16T03:34:01.034Z,97795.30
2022-11-16T03:35:12.845Z,97793.74
2022-11-16T03:36:34.116Z,97797.39
2022-11-16T03:37:39.657Z,97796.48
2022-11-16T03:38:47.863Z,97792.76
2022-11-16T03:39:53.387Z,97799.02
2022-11-16T03:41:01.912Z,97796.20
2022-11-16T03:42:09.365Z,97794.73
2022-11-16T03:43:11.948Z,97796.14
2022-11-16T03:44:17.819Z,97798.39
2022-11-16T03:45:21.329Z,97795.89
2022-11-16T03:46:24.352Z,97801.39
2022-11-16T03:47:26.186Z,97801.44
2022-11-16T03:48:38.100Z,97801.95
2022-11-16T03:49:48.200Z,97800.42
2022-11-16T03:50:52.688Z,97797.56
2022-11-16T03:51:54.767Z,97801.70
2022-11-16T03:52:57.367Z,97800.42
2022-11-16T03:53:59.345Z,97804.13
2022-11-16T03:55:01.224Z,97801.45
2022-11-16T03:56:04.301Z,97803.27
2022-11-16T03:57:06.849Z,97801.31
2022-11-16T03:58:08.600Z,97801.90
2022-11-16T03:59:10.500Z,97801.79
2022-11-16T04:00:12.847Z,97802.37
2022-11-16T04:01:17.531Z,97801.13
2022-11-16T04:02:19.794Z,97800.17
2022-11-16T04:03:22.991Z,97799.97
2022-11-16T04:04:43.615Z,97800.02
2022-11-16T04:06:03.940Z,97794.47
2022-11-16T04:07:24.335Z,97789.73
2022-11-16T04:08:45.013Z,97792.32
2022-11-16T04:10:05.743Z,97791.98
2022-11-16T04:11:31.721Z,97790.60
2022-11-16T04:12:52.353Z,97790.77
2022-11-16T04:14:12.856Z,97789.95
2022-11-16T04:15:34.299Z,97794.15
2022-11-16T04:16:54.731Z,97794.30
2022-11-16T04:18:15.012Z,97791.18
2022-11-16T04:19:35.414Z,97791.60
2022-11-16T04:20:55.524Z,97789.20
2022-11-16T04:22:23.298Z,97785.98
2022-11-16T04:23:43.809Z,97785.59
2022-11-16T04:24:54.714Z,97782.48
2022-11-16T04:25:57.528Z,97782.42
2022-11-16T04:27:24.606Z,97779.49
2022-11-16T04:28:32.081Z,97776.61
2022-11-16T04:29:37.177Z,97779.34
2022-11-16T04:31:12.754Z,97774.52
2022-11-16T04:32:34.854Z,97776.27
2022-11-16T04:33:55.895Z,97777.04
2022-11-16T04:35:16.736Z,97768.14
2022-11-16T04:36:37.229Z,97772.91
2022-11-16T04:37:52.716Z,97769.00
2022-11-16T04:39:03.142Z,97768.58
2022-11-16T04:40:05.472Z,97771.85
2022-11-16T04:41:27.317Z,97769.33
2022-11-16T04:42:29.087Z,97767.87
2022-11-16T04:43:30.846Z,97770.13
2022-11-16T04:44:55.597Z,97764.14
2022-11-16T04:46:17.919Z,97766.71
2022-11-16T04:47:19.721Z,97769.36
2022-11-16T04:48:21.999Z,97769.68
2022-11-16T04:49:26.207Z,97770.07
2022-11-16T04:50:28.259Z,97772.23
2022-11-16T04:51:30.428Z,97772.61
2022-11-16T04:52:32.490Z,97770.36
2022-11-16T04:53:34.451Z,97774.91
2022-11-16T04:54:42.671Z,97774.20
2022-11-16T04:55:44.780Z,97771.86
2022-11-16T04:56:46.970Z,97774.73
2022-11-16T04:57:48.743Z,97773.04
2022-11-16T04:58:51.228Z,97774.66
2022-11-16T04:59:53.310Z,97772.38
2022-11-16T05:00:55.183Z,97774.59
2022-11-16T05:02:09.284Z,97776.37
2022-11-16T05:03:18.904Z,97773.79
2022-11-16T05:04:20.785Z,97777.04
2022-11-16T05:05:22.749Z,97777.02
2022-11-16T05:06:25.182Z,97777.76
2022-11-16T05:07:27.017Z,97776.48
2022-11-16T05:08:35.508Z,97774.04
2022-11-16T05:09:51.067Z,97774.38
2022-11-16T05:10:52.919Z,97775.70
2022-11-16T05:11:54.713Z,97777.12
2022-11-16T05:12:57.674Z,97779.06
2022-11-16T05:13:59.798Z,97777.63
2022-11-16T05:15:01.987Z,97778.44
2022-11-16T05:16:05.957Z,97778.30
2022-11-16T05:17:07.995Z,97777.20
2022-11-16T05:18:09.873Z,97775.05
2022-11-16T05:19:30.097Z,97775.65
2022-11-16T05:20:51.142Z,97772.82
2022-11-16T05:21:52.950Z,97775.43
2022-11-16T05:22:56.721Z,97773.23
2022-11-16T05:24:18.461Z,97768.25
2022-11-16T05:25:20.310Z,97771.91
2022-11-16T05:26:22.236Z,97770.41
2022-11-16T05:27:26.349Z,97769.82
2022-11-16T05:28:28.273Z,97766.12
2022-11-16T05:29:31.088Z,97764.88
2022-11-16T05:30:32.868Z,97765.42
2022-11-16T05:31:40.139Z,97761.73
2022-11-16T05:32:43.451Z,97765.95
2022-11-16T05:33:45.388Z,97766.48
2022-11-16T05:34:48.509Z,97764.02
2022-11-16T05:35:51.663Z,97763.21
2022-11-16T05:36:54.463Z,97761.63
2022-11-16T05:37:56.653Z,97762.67
2022-11-16T05:38:58.403Z,97762.36
2022-11-16T05:40:01.598Z,97759.69
2022-11-16T05:41:12.186Z,97760.13
2022-11-16T05:42:14.114Z,97760.30
2022-11-16T05:43:16.123Z,97760.77
2022-11-16T05:44:25.082Z,97758.05
2022-11-16T05:45:27.088Z,97761.25
2022-11-16T05:46:28.918Z,97757.17
2022-11-16T05:47:33.400Z,97758.20
2022-11-16T05:48:35.991Z,97754.69
2022-11-16T05:49:38.695Z,97756.50
2022-11-16T05:50:42.917Z,97754.60
2022-11-16T05:51:54.208Z,97752.25
2022-11-16T05:52:56.035Z,97752.94
2022-11-16T05:53:57.903Z,97754.80
2022-11-16T05:55:00.907Z,97756.88
2022-11-16T05:56:03.144Z,97755.39
2022-11-16T05:57:05.573Z,97761.01
2022-11-16T05:58:07.411Z,97764.28
2022-11-16T05:59:15.229Z,97757.86
2022-11-16T06:00:18.969Z,97755.67
2022-11-16T06:01:22.488Z,97757.41
2022-11-16T06:02:24.686Z,97752.64
2022-11-16T06:03:29.566Z,97753.00
2022-11-16T06:04:32.526Z,97752.36
2022-11-16T06:05:40.241Z,97754.63
2022-11-16T06:06:43.061Z,97755.23
2022-11-16T06:07:46.766Z,97754.80
2022-11-16T06:08:48.573Z,97754.70
2022-11-16T06:09:53.578Z,97755.95
2022-11-16T06:10:55.931Z,97754.77
2022-11-16T06:11:57.916Z,97758.48
2022-11-16T06:12:59.691Z,97757.38
2022-11-16T06:14:01.453Z,97759.91
2022-11-16T06:15:03.457Z,97758.33
2022-11-16T06:16:05.967Z,97757.62
2022-11-16T06:17:08.708Z,97752.77
2022-11-16T06:18:10.736Z,97753.70
2022-11-16T06:19:12.583Z,97755.15
2022-11-16T06:20:14.625Z,97749.96
2022-11-16T06:21:19.347Z,97746.73
2022-11-16T06:22:21.160Z,97745.11
2022-11-16T06:23:23.603Z,97748.45
2022-11-16T06:24:26.043Z,97746.78
2022-11-16T06:25:28.012Z,97746.20
2022-11-16T06:26:29.739Z,97746.20
2022-11-16T06:27:31.495Z,97742.89
2022-11-16T06:28:34.514Z,97743.55
2022-11-16T06:29:36.703Z,97742.11
2022-11-16T06:30:40.581Z,97739.29
2022-11-16T06:31:42.694Z,97741.16
2022-11-16T06:32:45.460Z,97741.54
2022-11-16T06:33:47.248Z,97741.65
2022-11-16T06:34:55.883Z,97735.20
2022-11-16T06:35:57.958Z,97739.36
2022-11-16T06:37:00.122Z,97731.41
2022-11-16T06:38:01.916Z,97732.27
2022-11-16T06:39:03.840Z,97734.92
2022-11-16T06:40:11.014Z,97735.77
2022-11-16T06:41:15.995Z,97740.03
2022-11-16T06:42:20.197Z,97742.20
2022-11-16T06:43:23.262Z,97738.62
2022-11-16T06:44:25.087Z,97743.76
2022-11-16T06:45:31.825Z,97742.33
2022-11-16T06:46:34.679Z,97742.06
2022-11-16T06:47:37.361Z,97743.28
2022-11-16T06:48:39.491Z,97740.23
2022-11-16T06:49:44.368Z,97740.38
2022-11-16T06:50:52.506Z,97741.36
2022-11-16T06:51:54.860Z,97740.40
2022-11-16T06:52:56.624Z,97740.67
2022-11-16T06:53:58.502Z,97739.99
2022-11-16T06:55:02.407Z,97740.00
2022-11-16T06:56:07.488Z,97738.40
2022-11-16T06:57:15.798Z,97741.21
2022-11-16T06:58:18.200Z,97733.58
2022-11-16T06:59:20.052Z,97737.20
2022-11-16T07:00:22.073Z,97735.92
2022-11-16T07:01:24.624Z,97740.40
2022-11-16T07:02:29.434Z,97743.70
2022-11-16T07:03:32.469Z,97739.80
2022-11-16T07:04:36.158Z,97738.59
2022-11-16T07:05:40.907Z,97735.18
2022-11-16T07:06:45.272Z,97730.89
2022-11-16T07:07:47.947Z,97726.77
2022-11-16T07:08:50.330Z,97722.77
2022-11-16T07:09:54.362Z,97723.15
2022-11-16T07:10:59.027Z,97719.55
2022-11-16T07:12:04.993Z,97720.79
2022-11-16T07:13:10.303Z,97714.00
2022-11-16T07:14:13.290Z,97713.20
2022-11-16T07:15:17.583Z,97709.77
2022-11-16T07:16:21.076Z,97713.46
2022-11-16T07:17:30.037Z,97715.59
2022-11-16T07:18:35.193Z,97717.04
2022-11-16T07:19:37.315Z,97718.38
2022-11-16T07:20:39.207Z,97717.95
2022-11-16T07:21:41.059Z,97721.91
2022-11-16T07:22:47.026Z,97718.80
2022-11-16T07:23:49.327Z,97720.20
2022-11-16T07:24:53.870Z,97720.29
2022-11-16T07:26:00.216Z,97717.05
2022-11-16T07:27:08.878Z,97720.82
2022-11-16T07:28:11.794Z,97722.13
2022-11-16T07:29:15.367Z,97723.05
2022-11-16T07:30:21.276Z,97720.61
2022-11-16T07:31:31.893Z,97722.53
2022-11-16T07:32:59.302Z,97720.58
2022-11-16T07:34:21.226Z,97719.45
2022-11-16T07:35:48.628Z,97713.95
2022-11-16T07:36:50.919Z,97713.11
2022-11-16T07:37:52.774Z,97713.48
2022-11-16T07:38:54.721Z,97714.14
2022-11-16T07:39:56.513Z,97709.61
2022-11-16T07:41:06.415Z,97712.54
2022-11-16T07:42:12.314Z,97715.81
2022-11-16T07:43:29.509Z,97714.48
2022-11-16T07:45:20.992Z,97719.25
2022-11-16T07:46:45.873Z,97714.70
2022-11-16T07:47:52.330Z,97720.78
2022-11-16T07:49:01.211Z,97722.83
2022-11-16T07:50:21.503Z,97721.85
2022-11-16T07:51:23.852Z,97727.44
2022-11-16T07:52:38.295Z,97723.58
2022-11-16T07:53:55.861Z,97724.77
2022-11-16T07:54:57.738Z,97727.55
2022-11-16T07:56:01.849Z,97722.90
2022-11-16T07:57:04.059Z,97728.54
2022-11-16T07:58:05.960Z,97724.64
2022-11-16T07:59:08.960Z,97726.21
2022-11-16T08:00:14.093Z,97725.67
2022-11-16T08:01:19.064Z,97723.67
2022-11-16T08:02:21.245Z,97721.57
2022-11-16T08:03:24.927Z,97720.77
2022-11-16T08:04:28.011Z,97723.50
2022-11-16T08:05:30.135Z,97723.13
2022-11-16T08:06:32.206Z,97720.57
2022-11-16T08:07:35.554Z,97719.79
2022-11-16T08:08:38.155Z,97721.23
2022-11-16T08:09:40.782Z,97720.02
2022-11-16T08:10:43.507Z,97717.95
2022-11-16T08:11:47.098Z,97716.83
2022-11-16T08:12:49.174Z,97718.73
2022-11-16T08:13:53.503Z,97719.89
2022-11-16T08:14:55.414Z,97718.20
2022-11-16T08:16:11.618Z,97715.80
2022-11-16T08:17:13.507Z,97718.27
2022-11-16T08:18:15.378Z,97717.79
2022-11-16T08:19:17.233Z,97717.84
2022-11-16T08:20:19.016Z,97721.05
2022-11-16T08:21:22.560Z,97721.70
2022-11-16T08:22:24.652Z,97719.50
2022-11-16T08:23:28.676Z,97724.86
2022-11-16T08:24:30.433Z,97724.20
2022-11-16T08:25:32.356Z,97722.27
2022-11-16T08:26:34.949Z,97720.77
2022-11-16T08:27:40.768Z,97724.41
2022-11-16T08:28:44.717Z,97723.20
2022-11-16T08:29:46.645Z,97723.25
2022-11-16T08:30:53.665Z,97722.30
2022-11-16T08:31:56.248Z,97724.30
2022-11-16T08:32:58.374Z,97723.91
2022-11-16T08:34:00.937Z,97724.29
2022-11-16T08:35:03.130Z,97724.52
2022-11-16T08:36:13.763Z,97721.81
2022-11-16T08:37:16.737Z,97718.27
2022-11-16T08:38:20.191Z,97718.27
2022-11-16T08:39:22.066Z,97713.45
2022-11-16T08:40:24.578Z,97715.11
2022-11-16T08:41:26.516Z,97711.59
2022-11-16T08:42:28.634Z,97709.51
2022-11-16T08:43:31.057Z,97708.75
2022-11-16T08:44:32.799Z,97705.95
2022-11-16T08:45:38.347Z,97706.90
2022-11-16T08:46:40.382Z,97706.43
2022-11-16T08:48:03.248Z,97706.02
2022-11-16T08:49:06.273Z,97708.06
2022-11-16T08:50:08.346Z,97705.84
2022-11-16T08:51:20.151Z,97700.81
2022-11-16T08:52:27.795Z,97702.70
2022-11-16T08:53:29.877Z,97702.65
2022-11-16T08:54:32.202Z,97704.88
2022-11-16T08:55:34.018Z,97704.18
2022-11-16T08:56:35.873Z,97706.46
2022-11-16T08:57:37.969Z,97708.84
2022-11-16T08:58:44.333Z,97707.02
2022-11-16T08:59:47.293Z,97709.79
2022-11-16T09:00:49.277Z,97707.89
2022-11-16T09:01:51.174Z,97709.95
2022-11-16T09:02:52.942Z,97711.88
2022-11-16T09:03:55.154Z,97712.05
2022-11-16T09:04:57.172Z,97712.33
2022-11-16T09:05:59.502Z,97715.77
2022-11-16T09:07:01.284Z,97714.66
2022-11-16T09:08:03.114Z,97713.36
2022-11-16T09:09:04.997Z,97711.88
2022-11-16T09:10:07.592Z,97711.61
2022-11-16T09:11:12.503Z,97713.05
2022-11-16T09:12:14.247Z,97713.80
2022-11-16T09:13:15.950Z,97710.91
2022-11-16T09:14:17.871Z,97710.88
2022-11-16T09:15:20.810Z,97709.27
2022-11-16T09:16:23.188Z,97708.98
2022-11-16T09:17:24.909Z,97714.33
2022-11-16T09:18:27.983Z,97710.79
2022-11-16T09:19:29.679Z,97712.76
2022-11-16T09:20:31.390Z,97715.21
2022-11-16T09:21:33.132Z,97711.02
2022-11-16T09:22:35.189Z,97713.23
2022-11-16T09:23:37.040Z,97713.77
2022-11-16T09:24:38.825Z,97713.35
2022-11-16T09:25:40.533Z,97715.56
2022-11-16T09:26:42.273Z,97713.01
2022-11-16T09:27:43.973Z,97716.00
2022-11-16T09:28:46.267Z,97711.63
2022-11-16T09:29:48.024Z,97715.05
2022-11-16T09:30:51.546Z,97716.35
2022-11-16T09:31:54.250Z,97713.24
2022-11-16T09:32:58.475Z,97712.80
2022-11-16T09:34:00.310Z,97712.42
2022-11-16T09:35:02.018Z,97715.40
2022-11-16T09:36:07.139Z,97716.37
2022-11-16T09:37:09.322Z,97714.73
2022-11-16T09:38:13.749Z,97713.67
2022-11-16T09:39:30.664Z,97715.39
2022-11-16T09:40:37.819Z,97715.83
2022-11-16T09:42:03.850Z,97712.30
2022-11-16T09:43:44.027Z,97713.77
2022-11-16T09:45:07.693Z,97707.89
2022-11-16T09:46:27.017Z,97702.21
2022-11-16T09:47:49.802Z,97700.98
2022-11-16T09:48:58.184Z,97702.52
2022-11-16T09:50:04.693Z,97701.50
2022-11-16T09:51:12.276Z,97699.41
2022-11-16T09:52:27.980Z,97698.60
2022-11-16T09:53:42.396Z,97697.90
2022-11-16T09:54:47.323Z,97700.58
2022-11-16T09:55:53.331Z,97696.40
2022-11-16T09:57:02.114Z,97695.39
2022-11-16T09:58:15.516Z,97694.77
2022-11-16T09:59:51.894Z,97695.88
2022-11-16T10:01:06.495Z,97687.46
2022-11-16T10:02:31.556Z,97687.47
2022-11-16T10:03:43.564Z,97689.86
2022-11-16T10:05:14.515Z,97686.92
2022-11-16T10:06:22.216Z,97686.53
2022-11-16T10:07:33.183Z,97684.07
2022-11-16T10:08:43.299Z,97687.50
2022-11-16T10:09:46.576Z,97683.96
2022-11-16T10:11:30.333Z,97685.30
2022-11-16T10:12:31.956Z,97678.77
2022-11-16T10:13:52.104Z,97678.65
2022-11-16T10:15:24.646Z,97678.17
2022-11-16T10:16:56.737Z,97680.80
2022-11-16T10:18:25.051Z,97679.02
2022-11-16T10:19:43.697Z,97674.67
2022-11-16T10:21:04.378Z,97673.13
2022-11-16T10:22:20.712Z,97673.40
2022-11-16T10:23:31.468Z,97675.18
2022-11-16T10:24:57.989Z,97670.83
2022-11-16T10:26:21.876Z,97669.23
2022-11-16T10:27:51.701Z,97667.42
2022-11-16T10:29:16.090Z,97666.79
2022-11-16T10:30:20.790Z,97666.24
2022-11-16T10:31:51.093Z,97665.44
2022-11-16T10:33:11.289Z,97668.37
2022-11-16T10:34:25.667Z,97666.48
2022-11-16T10:35:53.631Z,97667.73
2022-11-16T10:37:06.893Z,97668.48
2022-11-16T10:38:15.159Z,97668.85
2022-11-16T10:39:20.563Z,97669.34
2022-11-16T10:40:27.444Z,97666.70
2022-11-16T10:41:41.268Z,97661.81
2022-11-16T10:42:54.830Z,97666.11
2022-11-16T10:43:59.370Z,97663.76
2022-11-16T10:45:17.592Z,97657.67
2022-11-16T10:46:34.602Z,97655.48
2022-11-16T10:47:46.979Z,97656.52
2022-11-16T10:49:18.579Z,97658.55
2022-11-16T10:50:32.368Z,97657.54
2022-11-16T10:51:34.435Z,97654.59
2022-11-16T10:52:36.167Z,97654.74
2022-11-16T10:53:41.707Z,97658.67
2022-11-16T10:54:44.562Z,97653.48
2022-11-16T10:56:06.728Z,97650.70
2022-11-16T10:57:14.390Z,97653.73
2022-11-16T10:58:16.145Z,97654.33
2022-11-16T10:59:21.556Z,97645.32
2022-11-16T11:00:39.742Z,97647.66
2022-11-16T11:01:47.972Z,97650.43
2022-11-16T11:02:49.725Z,97646.59
2022-11-16T11:03:51.407Z,97649.61
2022-11-16T11:05:17.985Z,97647.75
2022-11-16T11:06:25.226Z,97649.02
2022-11-16T11:07:43.922Z,97646.94
2022-11-16T11:08:45.745Z,97647.47
2022-11-16T11:09:53.437Z,97646.91
2022-11-16T11:11:03.174Z,97642.95
2022-11-16T11:12:34.685Z,97645.23
2022-11-16T11:13:36.941Z,97643.74
2022-11-16T11:14:38.749Z,97644.98
2022-11-16T11:15:43.061Z,97645.10
2022-11-16T11:16:44.750Z,97644.02
2022-11-16T11:17:48.952Z,97644.08
2022-11-16T11:18:51.450Z,97645.97
2022-11-16T11:20:16.271Z,97647.23
2022-11-16T11:21:22.860Z,97646.06
2022-11-16T11:22:25.029Z,97644.23
2022-11-16T11:23:27.884Z,97640.17
2022-11-16T11:24:44.109Z,97640.23
2022-11-16T11:25:58.865Z,97640.45
2022-11-16T11:27:01.471Z,97643.48
2022-11-16T11:28:23.250Z,97644.22
2022-11-16T11:29:32.576Z,97642.20
2022-11-16T11:30:35.871Z,97646.77
2022-11-16T11:31:52.532Z,97645.25
2022-11-16T11:32:54.623Z,97648.20
2022-11-16T11:34:10.093Z,97648.27
2022-11-16T11:35:31.340Z,97646.24
2022-11-16T11:36:43.592Z,97649.20
2022-11-16T11:37:54.917Z,97644.97
2022-11-16T11:39:26.329Z,97642.99
2022-11-16T11:40:30.712Z,97640.80
2022-11-16T11:41:49.664Z,97641.05
2022-11-16T11:42:58.117Z,97642.87
2022-11-16T11:44:17.102Z,97639.80
2022-11-16T11:45:23.198Z,97636.73
2022-11-16T11:46:47.539Z,97636.71
2022-11-16T11:48:02.753Z,97637.43
2022-11-16T11:49:23.473Z,97639.27
2022-11-16T11:50:48.008Z,97639.25
2022-11-16T11:51:54.150Z,97636.83
2022-11-16T11:53:17.214Z,97639.02
2022-11-16T11:54:45.633Z,97636.09
2022-11-16T11:55:58.143Z,97637.33
2022-11-16T11:57:04.598Z,97636.56
2022-11-16T11:58:16.146Z,97634.44
2022-11-16T11:59:23.813Z,97638.30
2022-11-16T12:00:26.181Z,97642.42
2022-11-16T12:01:56.063Z,97642.79
2022-11-16T12:03:33.583Z,97637.81
2022-11-16T12:05:00.268Z,97641.71
2022-11-16T12:06:29.728Z,97640.70
2022-11-16T12:07:40.255Z,97638.48
2022-11-16T12:08:58.461Z,97635.17
2022-11-16T12:10:18.788Z,97637.27
2022-11-16T12:11:42.139Z,97635.24
2022-11-16T12:13:01.590Z,97634.66
2022-11-16T12:14:44.913Z,97635.08
2022-11-16T12:15:58.505Z,97639.41
2022-11-16T12:17:27.680Z,97637.21
2022-11-16T12:19:16.984Z,97634.66
2022-11-16T12:20:28.881Z,97631.98
2022-11-16T12:21:41.215Z,97633.44
2022-11-16T12:23:20.504Z,97632.28
2022-11-16T12:24:50.143Z,97635.17
2022-11-16T12:26:15.726Z,97631.56
2022-11-16T12:27:41.112Z,97634.30
2022-11-16T12:29:19.124Z,97632.70
2022-11-16T12:30:23.736Z,97633.09
2022-11-16T12:31:34.397Z,97633.60
2022-11-16T12:33:02.032Z,97635.45
2022-11-16T12:34:18.137Z,97633.89
2022-11-16T12:35:44.478Z,97633.30
2022-11-16T12:37:08.882Z,97636.73
2022-11-16T12:38:10.481Z,97638.55
2022-11-16T12:39:12.186Z,97639.84
2022-11-16T12:40:35.360Z,97643.42
2022-11-16T12:42:04.449Z,97647.92
2022-11-16T12:43:53.364Z,97646.09
2022-11-16T12:45:19.469Z,97649.25
2022-11-16T12:46:39.357Z,97649.75
2022-11-16T12:48:13.453Z,97649.70
2022-11-16T12:49:48.725Z,97648.14
2022-11-16T12:51:02.520Z,97649.96
2022-11-16T12:52:15.204Z,97650.70
2022-11-16T12:53:54.564Z,97648.52
2022-11-16T12:55:24.940Z,97648.93
2022-11-16T12:56:48.860Z,97649.23
2022-11-16T12:58:10.363Z,97648.16
2022-11-16T12:59:38.610Z,97645.36
2022-11-16T13:01:17.322Z,97651.80
2022-11-16T13:02:27.963Z,97653.29
2022-11-16T13:03:37.838Z,97653.67
2022-11-16T13:04:50.596Z,97653.61
2022-11-16T13:06:04.517Z,97654.83
2022-11-16T13:07:18.597Z,97652.20
2022-11-16T13:08:34.130Z,97647.21
2022-11-16T13:09:45.973Z,97650.73
2022-11-16T13:11:02.042Z,97647.17
2022-11-16T13:12:14.195Z,97651.55
2022-11-16T13:13:36.421Z,97653.33
2022-11-16T13:14:43.068Z,97655.87
2022-11-16T13:15:47.811Z,97657.91
2022-11-16T13:16:51.349Z,97654.22
2022-11-16T13:18:01.692Z,97657.42
2022-11-16T13:19:07.316Z,97655.66
2022-11-16T13:20:31.651Z,97653.47
2022-11-16T13:21:57.154Z,97656.13
2022-11-16T13:23:08.020Z,97657.12
2022-11-16T13:24:20.272Z,97657.54
2022-11-16T13:25:33.986Z,97659.02
2022-11-16T13:27:11.984Z,97658.38
2022-11-16T13:28:29.375Z,97662.95
2022-11-16T13:29:48.084Z,97659.48
2022-11-16T13:31:31.609Z,97663.34
2022-11-16T13:32:34.804Z,97659.03
2022-11-16T13:33:51.029Z,97655.61
2022-11-16T13:34:54.599Z,97652.91
2022-11-16T13:35:56.831Z,97653.17